Time;durP1;ratioP1;P1;durP2;ratioP2;P2;SDS_P1;SDS_P2;PMS_P1;PMS_P2;Temp;Humidity;BMP_temperature;BMP_pressure;BME280_temperature;BME280_humidity;BME280_pressure;Samples;Min_cycle;Max_cycle;Signal;HPM_P1;HPM_P2
2022/12/11 00:02:17;;;;;;;5.35;3.95;;;;;;;;;;10447745;28;20036;-53
2022/12/11 00:07:17;;;;;;;5.25;3.88;;;;;;;;;;10447321;28;20024;-56
2022/12/11 00:12:18;;;;;;;3.65;3.33;;;;;;;;;;10448544;28;20024;-58
2022/12/11 00:17:18;;;;;;;3.30;3.00;;;;;;;;;;10446682;28;20033;-62
2022/12/11 00:22:19;;;;;;;4.47;3.50;;;;;;;;;;10447868;28;20285;-56
2022/12/11 00:27:19;;;;;;;4.40;3.13;;;;;;;;;;10430110;28;20044;-57
2022/12/11 00:32:20;;;;;;;3.85;3.28;;;;;;;;;;10447487;28;20036;-54
2022/12/11 00:37:20;;;;;;;6.13;3.40;;;;;;;;;;10447596;28;20040;-56
2022/12/11 00:42:21;;;;;;;5.38;3.10;;;;;;;;;;10447249;28;20496;-57
2022/12/11 00:47:22;;;;;;;5.15;3.70;;;;;;;;;;10448276;28;20369;-58
2022/12/11 00:52:23;;;;;;;4.85;3.72;;;;;;;;;;10445993;28;20033;-55
2022/12/11 00:57:24;;;;;;;5.03;3.28;;;;;;;;;;10447285;28;20033;-54
2022/12/11 01:02:24;;;;;;;3.78;3.13;;;;;;;;;;10446823;28;20472;-57
2022/12/11 01:07:25;;;;;;;3.60;3.00;;;;;;;;;;10448231;28;20450;-57
2022/12/11 01:12:27;;;;;;;4.20;3.58;;;;;;;;;;10453771;28;20365;-59
2022/12/11 01:17:27;;;;;;;3.65;2.95;;;;;;;;;;10455013;28;20033;-54
2022/12/11 01:22:28;;;;;;;4.55;3.22;;;;;;;;;;10454491;28;20325;-54
2022/12/11 01:27:29;;;;;;;14.23;3.25;;;;;;;;;;10453810;28;20445;-52
2022/12/11 01:32:30;;;;;;;7.03;3.00;;;;;;;;;;10451981;28;20096;-57
2022/12/11 01:37:30;;;;;;;3.88;2.90;;;;;;;;;;10453500;28;20020;-57
2022/12/11 01:42:31;;;;;;;3.97;3.03;;;;;;;;;;10454955;28;20025;-57
2022/12/11 01:47:32;;;;;;;3.45;2.92;;;;;;;;;;10452645;28;20544;-58
2022/12/11 01:52:32;;;;;;;5.38;3.28;;;;;;;;;;10452119;28;20044;-55
2022/12/11 01:57:35;;;;;;;5.78;2.95;;;;;;;;;;10453625;28;20484;-59
2022/12/11 02:02:35;;;;;;;3.75;2.75;;;;;;;;;;10430012;28;20082;-58
2022/12/11 02:07:59;;;;;;;3.38;3.08;;;;;;;;;;10438700;28;20144;-57
2022/12/11 02:13:25;;;;;;;2.97;2.67;;;;;;;;;;10447484;28;20064;-58
2022/12/11 02:18:50;;;;;;;3.70;3.00;;;;;;;;;;10431976;28;20037;-58
2022/12/11 02:24:22;;;;;;;3.80;2.85;;;;;;;;;;10436131;28;20219;-58
2022/12/11 02:29:40;;;;;;;3.70;2.97;;;;;;;;;;10436724;28;20048;-58
2022/12/11 02:35:08;;;;;;;2.87;2.40;;;;;;;;;;10448437;28;20388;-59
2022/12/11 02:40:11;;;;;;;3.35;2.78;;;;;;;;;;10448359;28;20184;-58
2022/12/11 02:45:13;;;;;;;4.68;2.78;;;;;;;;;;10432828;28;20252;-56
2022/12/11 02:50:18;;;;;;;3.58;2.70;;;;;;;;;;10432771;28;20032;-57
2022/12/11 02:55:19;;;;;;;2.60;2.40;;;;;;;;;;10433202;28;20029;-57
2022/12/11 03:00:20;;;;;;;3.10;2.70;;;;;;;;;;10450893;28;20021;-59
2022/12/11 03:05:21;;;;;;;3.33;2.63;;;;;;;;;;10449348;28;20263;-58
2022/12/11 03:10:22;;;;;;;6.50;2.60;;;;;;;;;;10424722;28;20040;-59
2022/12/11 03:15:49;;;;;;;3.50;2.60;;;;;;;;;;10449873;28;20157;-58
2022/12/11 03:21:03;;;;;;;7.63;2.20;;;;;;;;;;10448187;28;20141;-58
2022/12/11 03:26:10;;;;;;;2.63;2.20;;;;;;;;;;10449609;28;20016;-54
2022/12/11 03:31:30;;;;;;;2.75;2.28;;;;;;;;;;10431634;28;20049;-56
2022/12/11 03:36:36;;;;;;;2.80;2.53;;;;;;;;;;10449370;28;20025;-59
2022/12/11 03:41:38;;;;;;;2.60;2.40;;;;;;;;;;10431220;28;20032;-54
2022/12/11 03:46:42;;;;;;;2.88;2.38;;;;;;;;;;10431101;28;20059;-55
2022/12/11 03:51:44;;;;;;;2.40;2.15;;;;;;;;;;10430457;28;20032;-54
2022/12/11 03:56:47;;;;;;;2.38;2.17;;;;;;;;;;10430828;28;20017;-59
2022/12/11 04:01:47;;;;;;;3.47;2.60;;;;;;;;;;10448014;28;20025;-57
2022/12/11 04:06:48;;;;;;;3.40;2.20;;;;;;;;;;10448911;28;20095;-58
2022/12/11 04:11:48;;;;;;;2.60;2.10;;;;;;;;;;10440971;28;20021;-58
2022/12/11 04:16:49;;;;;;;2.85;2.17;;;;;;;;;;10447470;28;20029;-56
2022/12/11 04:27:09;;;;;;;2.80;2.05;;;;;;;;;;10447660;28;20032;-59
2022/12/11 04:32:09;;;;;;;2.65;2.05;;;;;;;;;;10446729;28;20045;-59
2022/12/11 04:37:10;;;;;;;3.35;2.13;;;;;;;;;;10447119;28;20033;-59
2022/12/11 04:42:10;;;;;;;2.25;2.05;;;;;;;;;;10447172;28;20025;-59
2022/12/11 04:47:11;;;;;;;2.30;2.10;;;;;;;;;;10446998;28;20040;-58
2022/12/11 04:52:11;;;;;;;2.40;2.08;;;;;;;;;;10447520;28;20029;-59
2022/12/11 04:57:12;;;;;;;3.00;1.80;;;;;;;;;;10447448;28;20587;-58
2022/12/11 05:02:14;;;;;;;2.40;2.20;;;;;;;;;;10447571;28;20467;-58
2022/12/11 05:07:15;;;;;;;2.55;2.10;;;;;;;;;;10428090;28;20032;-59
2022/12/11 05:12:15;;;;;;;2.20;1.83;;;;;;;;;;10440410;28;20025;-58
2022/12/11 05:17:16;;;;;;;2.20;2.00;;;;;;;;;;10446397;28;20025;-58
2022/12/11 05:22:17;;;;;;;2.67;2.05;;;;;;;;;;10445248;28;20021;-58
2022/12/11 05:27:18;;;;;;;2.47;1.70;;;;;;;;;;10446604;28;20029;-60
2022/12/11 05:32:18;;;;;;;2.47;2.10;;;;;;;;;;10446781;28;20045;-58
2022/12/11 05:37:19;;;;;;;1.77;1.60;;;;;;;;;;10446108;28;20025;-58
2022/12/11 05:42:20;;;;;;;7.20;1.90;;;;;;;;;;10445889;28;20070;-57
2022/12/11 05:47:20;;;;;;;2.22;1.98;;;;;;;;;;10446559;28;20024;-60
2022/12/11 05:52:21;;;;;;;2.28;1.77;;;;;;;;;;10446861;28;20021;-57
2022/12/11 05:57:22;;;;;;;2.05;1.85;;;;;;;;;;10453473;28;20029;-56
2022/12/11 06:02:22;;;;;;;1.83;1.70;;;;;;;;;;10453044;28;20063;-58
2022/12/11 06:07:23;;;;;;;2.05;1.80;;;;;;;;;;10452808;28;20103;-55
2022/12/11 06:12:24;;;;;;;1.95;1.85;;;;;;;;;;10450885;28;20041;-57
2022/12/11 06:17:25;;;;;;;1.80;1.70;;;;;;;;;;10450544;28;20029;-56
2022/12/11 06:22:25;;;;;;;1.60;1.45;;;;;;;;;;10452278;28;20021;-57
2022/12/11 06:27:26;;;;;;;1.80;1.65;;;;;;;;;;10444774;28;20048;-57
2022/12/11 06:32:26;;;;;;;1.52;1.42;;;;;;;;;;10451942;28;20044;-59
2022/12/11 06:37:27;;;;;;;1.85;1.73;;;;;;;;;;10450220;28;20606;-55
2022/12/11 06:42:31;;;;;;;4.57;1.40;;;;;;;;;;10449139;28;20426;-59
2022/12/11 06:47:32;;;;;;;16.77;1.88;;;;;;;;;;10448836;28;20039;-56
2022/12/11 06:52:33;;;;;;;1.50;1.40;;;;;;;;;;10449747;28;20029;-59
2022/12/11 06:57:33;;;;;;;2.08;1.38;;;;;;;;;;10449266;28;20044;-55
2022/12/11 07:02:34;;;;;;;2.03;1.65;;;;;;;;;;10451898;28;20385;-56
2022/12/11 07:07:35;;;;;;;1.90;1.70;;;;;;;;;;10449427;28;20173;-58
2022/12/11 07:12:35;;;;;;;1.52;1.42;;;;;;;;;;10447230;28;20036;-58
2022/12/11 07:17:36;;;;;;;1.70;1.60;;;;;;;;;;10447978;28;20060;-59
2022/12/11 07:22:37;;;;;;;5.43;1.20;;;;;;;;;;10443896;28;20369;-60
2022/12/11 07:27:37;;;;;;;1.73;1.55;;;;;;;;;;10447893;28;20113;-59
2022/12/11 07:32:38;;;;;;;12.40;1.60;;;;;;;;;;10448230;28;20056;-60
2022/12/11 07:37:40;;;;;;;2.30;1.50;;;;;;;;;;10445881;28;20503;-59
2022/12/11 07:42:41;;;;;;;8.30;1.50;;;;;;;;;;10446875;28;20147;-60
2022/12/11 07:47:41;;;;;;;2.30;1.67;;;;;;;;;;10440400;28;20047;-60
2022/12/11 07:52:42;;;;;;;2.83;1.40;;;;;;;;;;10443967;28;20025;-60
2022/12/11 07:57:42;;;;;;;1.45;1.20;;;;;;;;;;10448297;28;20028;-60
2022/12/11 08:02:43;;;;;;;2.25;1.40;;;;;;;;;;10449202;28;20025;-60
2022/12/11 08:07:44;;;;;;;1.52;1.42;;;;;;;;;;10448387;28;20075;-60
2022/12/11 08:12:44;;;;;;;1.30;1.20;;;;;;;;;;10442505;28;20029;-60
2022/12/11 08:17:45;;;;;;;2.25;1.50;;;;;;;;;;10446283;28;20284;-59
2022/12/11 08:22:45;;;;;;;3.22;1.30;;;;;;;;;;10448020;28;20052;-60
2022/12/11 08:27:46;;;;;;;1.60;1.13;;;;;;;;;;10447498;28;20076;-60
2022/12/11 08:32:46;;;;;;;1.40;1.30;;;;;;;;;;10447495;28;20075;-59
2022/12/11 08:37:47;;;;;;;1.40;1.25;;;;;;;;;;10446527;28;20021;-59
2022/12/11 08:42:47;;;;;;;3.47;1.50;;;;;;;;;;10448000;28;20083;-60
2022/12/11 08:47:48;;;;;;;1.67;1.35;;;;;;;;;;10446684;28;20189;-60
2022/12/11 08:52:49;;;;;;;1.20;1.10;;;;;;;;;;10447531;28;20029;-60
2022/12/11 08:57:49;;;;;;;2.67;1.52;;;;;;;;;;10446756;28;20299;-60
2022/12/11 09:02:50;;;;;;;1.40;1.30;;;;;;;;;;10447761;28;20017;-60
2022/12/11 09:07:51;;;;;;;1.27;1.17;;;;;;;;;;10447225;28;20075;-59
2022/12/11 09:12:52;;;;;;;1.30;1.20;;;;;;;;;;10440862;28;20036;-60
2022/12/11 09:17:52;;;;;;;5.82;1.52;;;;;;;;;;10446681;28;20028;-60
2022/12/11 09:22:53;;;;;;;1.60;1.25;;;;;;;;;;10446201;28;20025;-60
2022/12/11 09:27:53;;;;;;;1.70;1.20;;;;;;;;;;10446957;28;20052;-59
2022/12/11 09:32:54;;;;;;;2.17;1.40;;;;;;;;;;10454284;28;20028;-60
2022/12/11 09:37:54;;;;;;;1.15;1.10;;;;;;;;;;10454025;28;20093;-60
2022/12/11 09:43:35;;;;;;;1.65;1.20;;;;;;;;;;10453310;28;20029;-60
2022/12/11 09:48:36;;;;;;;1.30;1.20;;;;;;;;;;10453599;28;20361;-60
2022/12/11 09:53:37;;;;;;;1.33;1.05;;;;;;;;;;10435306;28;20126;-60
2022/12/11 09:58:58;;;;;;;1.15;1.02;;;;;;;;;;10435912;28;20036;-60
2022/12/11 10:04:35;;;;;;;1.00;1.00;;;;;;;;;;10452633;28;20021;-60
2022/12/11 10:09:50;;;;;;;3.30;1.00;;;;;;;;;;10448991;28;20117;-60
2022/12/11 10:15:12;;;;;;;1.10;1.00;;;;;;;;;;10452141;28;20029;-60
2022/12/11 10:20:27;;;;;;;1.88;1.25;;;;;;;;;;10441410;28;20025;-60
2022/12/11 10:25:34;;;;;;;1.85;1.20;;;;;;;;;;10452327;28;20033;-59
2022/12/11 10:31:01;;;;;;;1.20;1.10;;;;;;;;;;10450719;28;20404;-59
2022/12/11 10:36:02;;;;;;;1.60;1.10;;;;;;;;;;10436816;28;20024;-60
2022/12/11 10:41:20;;;;;;;1.13;1.08;;;;;;;;;;10452096;28;20033;-60
2022/12/11 10:46:27;;;;;;;1.25;1.15;;;;;;;;;;10435371;28;20032;-60
2022/12/11 10:51:30;;;;;;;1.10;1.00;;;;;;;;;;10450467;28;20526;-60
2022/12/11 10:56:33;;;;;;;1.20;1.10;;;;;;;;;;10450210;28;20028;-60
2022/12/11 11:01:34;;;;;;;1.10;1.10;;;;;;;;;;10451650;28;20021;-60
2022/12/11 11:06:35;;;;;;;1.48;1.27;;;;;;;;;;10450923;28;20036;-60
2022/12/11 11:11:38;;;;;;;1.25;1.10;;;;;;;;;;10445140;28;20032;-59
2022/12/11 11:16:40;;;;;;;1.20;1.10;;;;;;;;;;10450937;28;20025;-60
2022/12/11 11:21:52;;;;;;;1.30;1.20;;;;;;;;;;10449126;28;20028;-60
2022/12/11 11:26:53;;;;;;;1.38;1.10;;;;;;;;;;10450541;28;20025;-60
2022/12/11 11:31:54;;;;;;;1.25;1.15;;;;;;;;;;10450110;28;20496;-60
2022/12/11 11:36:58;;;;;;;1.50;1.40;;;;;;;;;;10449831;28;20480;-60
2022/12/11 11:42:19;;;;;;;1.30;1.20;;;;;;;;;;10449022;28;20017;-60
2022/12/11 11:47:30;;;;;;;1.40;1.30;;;;;;;;;;10421094;28;20029;-60
2022/12/11 11:53:04;;;;;;;1.13;1.02;;;;;;;;;;10435585;28;20163;-60
2022/12/11 11:58:14;;;;;;;1.60;1.33;;;;;;;;;;10410310;28;20029;-59
2022/12/11 12:03:19;;;;;;;2.38;1.02;;;;;;;;;;10449048;28;20072;-60
2022/12/11 12:08:47;;;;;;;1.38;1.20;;;;;;;;;;10448757;28;20025;-60
2022/12/11 12:14:12;;;;;;;1.38;1.30;;;;;;;;;;10441914;28;20021;-60
2022/12/11 12:19:56;;;;;;;2.17;1.30;;;;;;;;;;10448500;28;20031;-60
2022/12/11 12:25:20;;;;;;;1.20;1.10;;;;;;;;;;10378286;28;20044;-60
2022/12/11 12:30:21;;;;;;;1.10;1.00;;;;;;;;;;10435391;28;20049;-60
2022/12/11 12:35:35;;;;;;;1.30;1.20;;;;;;;;;;10448276;28;20137;-60
2022/12/11 12:41:25;;;;;;;1.00;1.00;;;;;;;;;;10435597;28;20021;-60
2022/12/11 12:46:38;;;;;;;1.70;1.13;;;;;;;;;;10441037;28;20025;-60
2022/12/11 12:51:40;;;;;;;1.40;1.30;;;;;;;;;;10447602;28;20046;-60
2022/12/11 12:56:43;;;;;;;1.25;1.15;;;;;;;;;;10447416;28;20055;-60
2022/12/11 13:01:51;;;;;;;1.23;1.00;;;;;;;;;;10447503;28;20109;-60
2022/12/11 13:06:51;;;;;;;1.27;1.17;;;;;;;;;;10455518;28;20120;-60
2022/12/11 13:11:59;;;;;;;1.23;1.13;;;;;;;;;;10448718;28;20388;-60
2022/12/11 13:17:33;;;;;;;1.25;1.15;;;;;;;;;;10454403;28;20496;-60
2022/12/11 13:22:34;;;;;;;1.60;1.10;;;;;;;;;;10454260;28;20021;-60
2022/12/11 13:27:34;;;;;;;1.67;1.00;;;;;;;;;;10455008;28;20086;-59
2022/12/11 13:32:35;;;;;;;1.30;1.20;;;;;;;;;;10455037;28;20021;-60
2022/12/11 13:37:43;;;;;;;2.17;1.10;;;;;;;;;;10453506;28;20021;-60
2022/12/11 13:42:56;;;;;;;1.23;1.13;;;;;;;;;;10454612;28;20020;-60
2022/12/11 13:47:58;;;;;;;1.00;1.00;;;;;;;;;;10455064;28;20107;-60
2022/12/11 13:53:02;;;;;;;1.00;0.90;;;;;;;;;;10452489;28;20021;-60
2022/12/11 13:58:02;;;;;;;1.40;1.30;;;;;;;;;;10454180;28;20112;-60
2022/12/11 14:03:08;;;;;;;1.40;1.30;;;;;;;;;;10454375;28;20047;-60
2022/12/11 14:08:09;;;;;;;1.67;1.48;;;;;;;;;;10453221;28;20488;-60
2022/12/11 14:13:26;;;;;;;0.93;0.93;;;;;;;;;;10434504;28;20024;-60
2022/12/11 14:18:32;;;;;;;1.92;1.40;;;;;;;;;;10439393;28;20110;-60
2022/12/11 14:23:35;;;;;;;1.65;1.27;;;;;;;;;;10440700;28;20036;-59
2022/12/11 14:28:41;;;;;;;1.35;1.25;;;;;;;;;;10440382;28;20136;-60
2022/12/11 14:33:54;;;;;;;1.35;1.25;;;;;;;;;;10445750;28;20029;-59
2022/12/11 14:39:01;;;;;;;1.90;1.48;;;;;;;;;;10423699;28;20526;-59
2022/12/11 14:44:06;;;;;;;1.65;1.50;;;;;;;;;;10451409;28;20396;-59
2022/12/11 14:49:47;;;;;;;1.65;1.10;;;;;;;;;;10451985;28;20071;-60
2022/12/11 14:54:54;;;;;;;1.63;1.25;;;;;;;;;;10450409;28;20029;-60
2022/12/11 14:59:56;;;;;;;1.38;1.27;;;;;;;;;;10433756;28;20021;-59
2022/12/11 15:05:17;;;;;;;1.30;1.20;;;;;;;;;;10432421;28;20054;-59
2022/12/11 15:10:23;;;;;;;1.40;1.25;;;;;;;;;;10445101;28;20028;-60
2022/12/11 15:15:44;;;;;;;1.63;1.30;;;;;;;;;;10451072;28;20496;-59
2022/12/11 15:20:51;;;;;;;1.45;1.20;;;;;;;;;;10450569;28;20021;-59
2022/12/11 15:25:56;;;;;;;2.25;1.27;;;;;;;;;;10432037;28;20586;-59
2022/12/11 15:31:01;;;;;;;1.40;1.30;;;;;;;;;;10429506;28;20095;-59
2022/12/11 15:36:20;;;;;;;1.45;1.30;;;;;;;;;;10447142;28;20087;-59
2022/12/11 15:41:23;;;;;;;1.45;1.35;;;;;;;;;;10449001;28;20090;-59
2022/12/11 15:46:24;;;;;;;1.33;1.23;;;;;;;;;;10448673;28;20025;-59
2022/12/11 15:51:34;;;;;;;1.70;1.10;;;;;;;;;;10477942;28;21170;-60
2022/12/11 15:56:35;;;;;;;0.98;0.95;;;;;;;;;;10416550;28;20033;-60
2022/12/11 16:01:35;;;;;;;1.40;1.30;;;;;;;;;;10427156;28;20036;-60
2022/12/11 16:06:37;;;;;;;4.18;1.55;;;;;;;;;;10420685;28;20037;-60
2022/12/11 16:11:38;;;;;;;2.38;1.30;;;;;;;;;;10426520;28;20036;-59
2022/12/11 16:16:38;;;;;;;3.78;1.20;;;;;;;;;;10429925;28;20488;-59
2022/12/11 16:21:39;;;;;;;4.68;1.10;;;;;;;;;;10409433;28;20128;-59
2022/12/11 16:26:39;;;;;;;5.70;1.40;;;;;;;;;;10423718;28;20028;-60
2022/12/11 16:31:40;;;;;;;7.07;1.48;;;;;;;;;;10438072;28;20022;-60
2022/12/11 16:36:41;;;;;;;2.40;1.40;;;;;;;;;;10422870;28;20030;-60
2022/12/11 16:41:41;;;;;;;3.50;1.20;;;;;;;;;;10420234;28;20032;-60
2022/12/11 16:46:42;;;;;;;7.65;1.85;;;;;;;;;;10428649;28;20032;-60
2022/12/11 16:51:42;;;;;;;5.28;2.03;;;;;;;;;;10422030;28;20036;-60
2022/12/11 16:56:43;;;;;;;3.53;1.55;;;;;;;;;;10433186;28;20029;-60
2022/12/11 17:01:44;;;;;;;4.43;1.85;;;;;;;;;;10399550;28;20469;-60
2022/12/11 17:06:45;;;;;;;2.95;1.42;;;;;;;;;;10409681;28;20068;-60
2022/12/11 17:11:46;;;;;;;5.75;1.45;;;;;;;;;;10400327;28;20033;-60
2022/12/11 17:16:47;;;;;;;3.75;1.25;;;;;;;;;;10410451;28;20033;-60
2022/12/11 17:21:48;;;;;;;3.60;1.40;;;;;;;;;;10389837;28;20057;-60
2022/12/11 17:26:48;;;;;;;4.07;1.60;;;;;;;;;;10385192;28;20041;-60
2022/12/11 17:31:49;;;;;;;5.38;1.45;;;;;;;;;;10374883;28;20022;-60
2022/12/11 17:36:50;;;;;;;3.55;1.67;;;;;;;;;;10390864;28;20030;-61
2022/12/11 17:41:51;;;;;;;2.42;1.35;;;;;;;;;;10393787;28;20042;-60
2022/12/11 17:46:52;;;;;;;3.97;1.58;;;;;;;;;;10407047;28;20053;-63
2022/12/11 17:51:54;;;;;;;1.70;1.50;;;;;;;;;;10407295;28;20420;-60
2022/12/11 17:56:54;;;;;;;1.48;1.20;;;;;;;;;;10407741;28;20068;-63
2022/12/11 18:01:55;;;;;;;2.10;1.30;;;;;;;;;;10392907;28;20053;-61
2022/12/11 18:06:55;;;;;;;12.88;1.73;;;;;;;;;;10402783;28;20084;-60
2022/12/11 18:11:56;;;;;;;1.40;1.30;;;;;;;;;;10404282;28;20647;-60
2022/12/11 18:16:57;;;;;;;3.53;1.42;;;;;;;;;;10395400;28;20100;-60
2022/12/11 18:21:57;;;;;;;2.55;1.30;;;;;;;;;;10377387;28;20029;-59
2022/12/11 18:26:58;;;;;;;2.75;1.40;;;;;;;;;;10406998;28;20469;-62
2022/12/11 18:31:59;;;;;;;1.42;1.33;;;;;;;;;;10382799;28;20079;-60
2022/12/11 18:36:59;;;;;;;1.77;1.40;;;;;;;;;;10401674;28;20096;-60
2022/12/11 18:42:00;;;;;;;2.15;1.58;;;;;;;;;;10407379;28;20056;-60
2022/12/11 18:47:00;;;;;;;11.35;2.72;;;;;;;;;;10407167;28;20053;-50
2022/12/11 18:52:01;;;;;;;12.00;2.10;;;;;;;;;;10406940;28;20025;-60
2022/12/11 18:57:02;;;;;;;8.70;2.13;;;;;;;;;;10405319;28;20101;-59
2022/12/11 19:02:03;;;;;;;6.30;2.20;;;;;;;;;;10402486;28;20435;-59
2022/12/11 19:07:03;;;;;;;10.48;2.47;;;;;;;;;;10390527;28;20108;-59
2022/12/11 19:12:04;;;;;;;6.55;2.20;;;;;;;;;;10400056;28;20476;-59
2022/12/11 19:17:05;;;;;;;7.32;2.30;;;;;;;;;;10386173;28;20038;-60
2022/12/11 19:22:05;;;;;;;7.90;2.28;;;;;;;;;;10405331;28;20482;-59
2022/12/11 19:27:06;;;;;;;6.07;2.30;;;;;;;;;;10405575;28;20030;-59
2022/12/11 19:32:07;;;;;;;6.85;2.15;;;;;;;;;;10401941;28;20025;-59
2022/12/11 19:37:08;;;;;;;6.88;2.63;;;;;;;;;;10405821;28;20071;-59
2022/12/11 19:42:09;;;;;;;7.63;2.50;;;;;;;;;;10399322;28;20026;-60
2022/12/11 19:47:09;;;;;;;9.18;2.28;;;;;;;;;;10404062;28;20120;-59
2022/12/11 19:52:10;;;;;;;4.85;2.22;;;;;;;;;;10384360;28;20377;-60
2022/12/11 19:57:10;;;;;;;4.57;2.15;;;;;;;;;;10398589;28;20037;-60
2022/12/11 20:02:11;;;;;;;8.90;2.30;;;;;;;;;;10387528;28;20052;-60
2022/12/11 20:07:12;;;;;;;6.32;2.78;;;;;;;;;;10393032;28;20037;-59
2022/12/11 20:12:13;;;;;;;6.72;2.55;;;;;;;;;;10383067;28;20417;-60
2022/12/11 20:17:13;;;;;;;2.78;1.92;;;;;;;;;;10389881;28;20029;-60
2022/12/11 20:22:14;;;;;;;3.67;2.08;;;;;;;;;;10372222;28;20041;-60
2022/12/11 20:27:15;;;;;;;3.45;2.00;;;;;;;;;;10375991;28;20037;-60
2022/12/11 20:32:15;;;;;;;4.38;2.08;;;;;;;;;;10391715;28;20038;-60
2022/12/11 20:37:16;;;;;;;5.25;2.58;;;;;;;;;;10407894;28;20401;-60
2022/12/11 20:42:16;;;;;;;6.53;2.65;;;;;;;;;;10396426;28;20264;-60
2022/12/11 20:47:19;;;;;;;5.65;1.83;;;;;;;;;;10386099;28;20041;-60
2022/12/11 20:52:19;;;;;;;2.55;1.98;;;;;;;;;;10385068;28;20022;-60
2022/12/11 20:57:20;;;;;;;3.10;2.00;;;;;;;;;;10386592;28;20037;-60
2022/12/11 21:02:21;;;;;;;5.60;1.73;;;;;;;;;;10392669;28;20466;-59
2022/12/11 21:07:21;;;;;;;6.15;2.15;;;;;;;;;;10399552;28;20164;-59
2022/12/11 21:12:22;;;;;;;5.55;2.00;;;;;;;;;;10391505;28;20030;-59
2022/12/11 21:17:23;;;;;;;3.28;1.77;;;;;;;;;;10383259;28;20405;-60
2022/12/11 21:22:23;;;;;;;6.63;2.28;;;;;;;;;;10381937;28;20030;-60
2022/12/11 21:27:24;;;;;;;5.57;2.20;;;;;;;;;;10385288;28;20026;-59
2022/12/11 21:32:25;;;;;;;3.83;2.00;;;;;;;;;;10393070;28;20021;-58
2022/12/11 21:37:25;;;;;;;4.93;1.70;;;;;;;;;;10403149;28;20036;-59
2022/12/11 21:42:26;;;;;;;3.78;2.13;;;;;;;;;;10396286;28;20113;-60
2022/12/11 21:47:27;;;;;;;4.00;2.40;;;;;;;;;;10386395;28;20460;-59
2022/12/11 21:52:28;;;;;;;6.43;2.05;;;;;;;;;;10402997;28;20034;-60
2022/12/11 21:57:29;;;;;;;3.42;2.17;;;;;;;;;;10408582;28;20029;-60
2022/12/11 22:02:29;;;;;;;2.92;1.80;;;;;;;;;;10394128;28;20025;-60
2022/12/11 22:07:30;;;;;;;2.22;1.88;;;;;;;;;;10395056;28;20022;-60
2022/12/11 22:12:31;;;;;;;2.42;2.08;;;;;;;;;;10401596;28;20036;-59
2022/12/11 22:17:31;;;;;;;4.78;2.00;;;;;;;;;;10386695;28;20041;-60
2022/12/11 22:22:32;;;;;;;2.85;2.00;;;;;;;;;;10397021;28;20428;-61
2022/12/11 22:27:33;;;;;;;7.57;1.90;;;;;;;;;;10392027;28;20033;-60
2022/12/11 22:32:34;;;;;;;3.90;2.17;;;;;;;;;;10394035;28;20021;-61
2022/12/11 22:37:34;;;;;;;2.13;1.67;;;;;;;;;;10402696;28;20374;-61
2022/12/11 22:42:35;;;;;;;3.35;1.90;;;;;;;;;;10393948;28;20026;-61
2022/12/11 22:47:37;;;;;;;2.25;1.90;;;;;;;;;;10401796;28;20099;-61
2022/12/11 22:52:38;;;;;;;3.05;1.88;;;;;;;;;;10406458;28;20055;-61
2022/12/11 22:57:39;;;;;;;6.43;1.95;;;;;;;;;;10400070;28;20438;-61
2022/12/11 23:02:39;;;;;;;3.17;1.63;;;;;;;;;;10375947;28;20025;-61
2022/12/11 23:07:40;;;;;;;3.53;2.03;;;;;;;;;;10390959;28;20064;-61
2022/12/11 23:12:41;;;;;;;4.32;1.92;;;;;;;;;;10400304;28;20022;-63
2022/12/11 23:17:41;;;;;;;2.10;1.63;;;;;;;;;;10402616;28;20017;-61
2022/12/11 23:22:42;;;;;;;2.20;1.83;;;;;;;;;;10403335;28;20036;-61
2022/12/11 23:27:43;;;;;;;2.95;1.95;;;;;;;;;;10406131;28;20034;-61
2022/12/11 23:32:43;;;;;;;3.00;2.10;;;;;;;;;;10405541;28;20025;-61
2022/12/11 23:37:44;;;;;;;3.35;2.20;;;;;;;;;;10403507;28;20033;-61
2022/12/11 23:42:44;;;;;;;2.53;1.80;;;;;;;;;;10405354;28;20029;-61
2022/12/11 23:47:45;;;;;;;2.10;1.85;;;;;;;;;;10405274;28;20065;-61
2022/12/11 23:52:46;;;;;;;5.93;1.90;;;;;;;;;;10404127;28;20079;-61
2022/12/11 23:57:46;;;;;;;2.75;1.75;;;;;;;;;;10404137;28;20033;-61
